sensor_id;sensor_type;location;lat;lon;timestamp;P1;durP1;ratioP1;P2;durP2;ratioP2
18136;SDS011;9194;42.632;23.298;2022-10-17T00:04:34;6.63;;;4.90;;
18136;SDS011;9194;42.632;23.298;2022-10-17T00:09:36;5.60;;;4.03;;
18136;SDS011;9194;42.632;23.298;2022-10-17T00:14:37;6.53;;;4.50;;
18136;SDS011;9194;42.632;23.298;2022-10-17T00:19:38;12.80;;;5.03;;
18136;SDS011;9194;42.632;23.298;2022-10-17T00:24:40;8.43;;;3.97;;
18136;SDS011;9194;42.632;23.298;2022-10-17T00:29:41;5.63;;;4.17;;
18136;SDS011;9194;42.632;23.298;2022-10-17T00:34:42;7.10;;;4.40;;
18136;SDS011;9194;42.632;23.298;2022-10-17T00:39:44;7.17;;;4.17;;
18136;SDS011;9194;42.632;23.298;2022-10-17T00:49:47;7.77;;;4.10;;
18136;SDS011;9194;42.632;23.298;2022-10-17T00:54:50;5.40;;;4.37;;
18136;SDS011;9194;42.632;23.298;2022-10-17T00:59:56;4.57;;;3.90;;
18136;SDS011;9194;42.632;23.298;2022-10-17T01:04:59;6.27;;;4.03;;
18136;SDS011;9194;42.632;23.298;2022-10-17T01:10:01;6.37;;;4.30;;
18136;SDS011;9194;42.632;23.298;2022-10-17T01:31:11;5.40;;;3.93;;
18136;SDS011;9194;42.632;23.298;2022-10-17T01:36:19;10.20;;;4.67;;
18136;SDS011;9194;42.632;23.298;2022-10-17T01:47:19;7.67;;;4.30;;
18136;SDS011;9194;42.632;23.298;2022-10-17T01:52:29;6.90;;;4.57;;
18136;SDS011;9194;42.632;23.298;2022-10-17T01:57:38;8.17;;;4.47;;
18136;SDS011;9194;42.632;23.298;2022-10-17T02:02:42;9.33;;;4.80;;
18136;SDS011;9194;42.632;23.298;2022-10-17T02:07:46;4.97;;;3.87;;
18136;SDS011;9194;42.632;23.298;2022-10-17T02:12:50;4.73;;;3.50;;
18136;SDS011;9194;42.632;23.298;2022-10-17T02:28:51;1.80;;;1.70;;
18136;SDS011;9194;42.632;23.298;2022-10-17T02:34:17;2.10;;;1.90;;
18136;SDS011;9194;42.632;23.298;2022-10-17T02:39:25;2.57;;;1.90;;
18136;SDS011;9194;42.632;23.298;2022-10-17T02:44:30;2.10;;;2.00;;
18136;SDS011;9194;42.632;23.298;2022-10-17T02:49:35;2.07;;;1.93;;
18136;SDS011;9194;42.632;23.298;2022-10-17T02:54:49;2.03;;;1.93;;
18136;SDS011;9194;42.632;23.298;2022-10-17T02:59:54;3.07;;;2.20;;
18136;SDS011;9194;42.632;23.298;2022-10-17T03:04:59;4.90;;;2.40;;
18136;SDS011;9194;42.632;23.298;2022-10-17T03:10:00;3.13;;;2.20;;
18136;SDS011;9194;42.632;23.298;2022-10-17T03:15:03;1.90;;;1.80;;
18136;SDS011;9194;42.632;23.298;2022-10-17T03:20:06;3.33;;;2.60;;
18136;SDS011;9194;42.632;23.298;2022-10-17T03:25:08;3.33;;;2.37;;
18136;SDS011;9194;42.632;23.298;2022-10-17T03:30:10;2.43;;;2.23;;
18136;SDS011;9194;42.632;23.298;2022-10-17T03:35:13;3.47;;;3.10;;
18136;SDS011;9194;42.632;23.298;2022-10-17T03:40:14;3.60;;;2.67;;
18136;SDS011;9194;42.632;23.298;2022-10-17T03:45:16;4.67;;;3.50;;
18136;SDS011;9194;42.632;23.298;2022-10-17T03:50:19;6.83;;;3.90;;
18136;SDS011;9194;42.632;23.298;2022-10-17T03:55:21;7.57;;;4.17;;
18136;SDS011;9194;42.632;23.298;2022-10-17T04:00:22;8.10;;;3.83;;
18136;SDS011;9194;42.632;23.298;2022-10-17T04:05:30;5.60;;;4.07;;
18136;SDS011;9194;42.632;23.298;2022-10-17T04:10:31;9.67;;;4.53;;
18136;SDS011;9194;42.632;23.298;2022-10-17T04:15:32;4.20;;;3.67;;
18136;SDS011;9194;42.632;23.298;2022-10-17T04:20:34;7.57;;;4.70;;
18136;SDS011;9194;42.632;23.298;2022-10-17T04:25:36;13.83;;;4.57;;
18136;SDS011;9194;42.632;23.298;2022-10-17T04:30:38;13.50;;;3.80;;
18136;SDS011;9194;42.632;23.298;2022-10-17T04:35:40;6.93;;;4.17;;
18136;SDS011;9194;42.632;23.298;2022-10-17T04:40:42;10.63;;;4.60;;
18136;SDS011;9194;42.632;23.298;2022-10-17T04:45:44;9.80;;;4.57;;
18136;SDS011;9194;42.632;23.298;2022-10-17T04:50:55;7.13;;;4.27;;
18136;SDS011;9194;42.632;23.298;2022-10-17T04:56:07;11.10;;;4.20;;
18136;SDS011;9194;42.632;23.298;2022-10-17T05:01:14;18.43;;;3.70;;
18136;SDS011;9194;42.632;23.298;2022-10-17T05:06:23;7.53;;;3.80;;
18136;SDS011;9194;42.632;23.298;2022-10-17T05:11:46;6.70;;;4.20;;
18136;SDS011;9194;42.632;23.298;2022-10-17T05:16:47;7.57;;;4.30;;
18136;SDS011;9194;42.632;23.298;2022-10-17T05:21:49;7.80;;;4.30;;
18136;SDS011;9194;42.632;23.298;2022-10-17T05:26:50;9.57;;;5.60;;
18136;SDS011;9194;42.632;23.298;2022-10-17T05:31:52;8.77;;;5.40;;
18136;SDS011;9194;42.632;23.298;2022-10-17T05:36:54;12.40;;;7.27;;
18136;SDS011;9194;42.632;23.298;2022-10-17T05:41:58;27.50;;;7.80;;
18136;SDS011;9194;42.632;23.298;2022-10-17T05:47:01;19.90;;;8.27;;
18136;SDS011;9194;42.632;23.298;2022-10-17T05:52:02;26.07;;;9.97;;
18136;SDS011;9194;42.632;23.298;2022-10-17T05:57:09;29.73;;;9.80;;
18136;SDS011;9194;42.632;23.298;2022-10-17T06:02:12;20.30;;;10.57;;
18136;SDS011;9194;42.632;23.298;2022-10-17T06:07:14;21.20;;;10.10;;
18136;SDS011;9194;42.632;23.298;2022-10-17T06:12:17;18.67;;;8.90;;
18136;SDS011;9194;42.632;23.298;2022-10-17T06:17:20;17.50;;;10.73;;
18136;SDS011;9194;42.632;23.298;2022-10-17T06:22:21;27.27;;;11.17;;
18136;SDS011;9194;42.632;23.298;2022-10-17T06:27:23;27.57;;;11.30;;
18136;SDS011;9194;42.632;23.298;2022-10-17T06:32:24;23.27;;;10.90;;
18136;SDS011;9194;42.632;23.298;2022-10-17T06:37:29;24.47;;;11.27;;
18136;SDS011;9194;42.632;23.298;2022-10-17T06:42:32;31.30;;;12.67;;
18136;SDS011;9194;42.632;23.298;2022-10-17T06:47:42;31.53;;;12.70;;
18136;SDS011;9194;42.632;23.298;2022-10-17T06:52:58;44.10;;;13.90;;
18136;SDS011;9194;42.632;23.298;2022-10-17T06:58:21;34.97;;;13.80;;
18136;SDS011;9194;42.632;23.298;2022-10-17T07:03:41;35.03;;;14.07;;
18136;SDS011;9194;42.632;23.298;2022-10-17T07:08:44;29.30;;;15.00;;
18136;SDS011;9194;42.632;23.298;2022-10-17T07:13:48;30.23;;;14.23;;
18136;SDS011;9194;42.632;23.298;2022-10-17T07:18:50;36.77;;;14.37;;
18136;SDS011;9194;42.632;23.298;2022-10-17T07:23:52;28.67;;;13.00;;
18136;SDS011;9194;42.632;23.298;2022-10-17T07:28:54;35.83;;;15.30;;
18136;SDS011;9194;42.632;23.298;2022-10-17T07:34:06;27.03;;;13.40;;
18136;SDS011;9194;42.632;23.298;2022-10-17T07:39:07;28.53;;;12.67;;
18136;SDS011;9194;42.632;23.298;2022-10-17T07:44:11;24.97;;;12.90;;
18136;SDS011;9194;42.632;23.298;2022-10-17T07:49:19;20.70;;;11.90;;
18136;SDS011;9194;42.632;23.298;2022-10-17T07:54:21;27.23;;;11.97;;
18136;SDS011;9194;42.632;23.298;2022-10-17T07:59:22;25.93;;;10.13;;
18136;SDS011;9194;42.632;23.298;2022-10-17T08:04:24;20.37;;;8.90;;
18136;SDS011;9194;42.632;23.298;2022-10-17T08:09:26;20.30;;;7.17;;
18136;SDS011;9194;42.632;23.298;2022-10-17T08:14:27;14.40;;;6.57;;
18136;SDS011;9194;42.632;23.298;2022-10-17T08:24:49;16.23;;;6.50;;
18136;SDS011;9194;42.632;23.298;2022-10-17T08:29:50;14.60;;;5.83;;
18136;SDS011;9194;42.632;23.298;2022-10-17T08:34:53;15.90;;;5.77;;
18136;SDS011;9194;42.632;23.298;2022-10-17T08:39:55;12.97;;;6.33;;
18136;SDS011;9194;42.632;23.298;2022-10-17T08:50:31;16.07;;;5.80;;
18136;SDS011;9194;42.632;23.298;2022-10-17T08:55:41;14.57;;;5.83;;
18136;SDS011;9194;42.632;23.298;2022-10-17T09:06:21;18.20;;;5.57;;
18136;SDS011;9194;42.632;23.298;2022-10-17T09:22:20;14.73;;;6.78;;
18136;SDS011;9194;42.632;23.298;2022-10-17T09:32:32;16.85;;;6.30;;
18136;SDS011;9194;42.632;23.298;2022-10-17T09:37:33;7.50;;;4.20;;
18136;SDS011;9194;42.632;23.298;2022-10-17T09:42:34;7.68;;;3.72;;
18136;SDS011;9194;42.632;23.298;2022-10-17T09:47:45;6.03;;;2.92;;
18136;SDS011;9194;42.632;23.298;2022-10-17T09:52:53;10.52;;;4.80;;
18136;SDS011;9194;42.632;23.298;2022-10-17T09:57:57;10.13;;;5.80;;
18136;SDS011;9194;42.632;23.298;2022-10-17T10:03:20;8.10;;;3.88;;
18136;SDS011;9194;42.632;23.298;2022-10-17T10:08:23;7.20;;;3.50;;
18136;SDS011;9194;42.632;23.298;2022-10-17T10:13:28;17.75;;;4.00;;
18136;SDS011;9194;42.632;23.298;2022-10-17T10:18:32;10.60;;;3.30;;
18136;SDS011;9194;42.632;23.298;2022-10-17T10:23:36;7.85;;;4.07;;
18136;SDS011;9194;42.632;23.298;2022-10-17T10:28:39;13.05;;;3.38;;
18136;SDS011;9194;42.632;23.298;2022-10-17T10:33:42;6.68;;;3.47;;
18136;SDS011;9194;42.632;23.298;2022-10-17T10:38:49;8.95;;;3.15;;
18136;SDS011;9194;42.632;23.298;2022-10-17T10:43:56;5.68;;;3.35;;
18136;SDS011;9194;42.632;23.298;2022-10-17T10:48:59;9.35;;;2.90;;
18136;SDS011;9194;42.632;23.298;2022-10-17T10:54:15;6.35;;;3.00;;
18136;SDS011;9194;42.632;23.298;2022-10-17T10:59:35;10.02;;;3.20;;
18136;SDS011;9194;42.632;23.298;2022-10-17T11:05:05;14.40;;;3.15;;
18136;SDS011;9194;42.632;23.298;2022-10-17T11:10:22;6.38;;;2.78;;
18136;SDS011;9194;42.632;23.298;2022-10-17T11:26:14;8.15;;;2.60;;
18136;SDS011;9194;42.632;23.298;2022-10-17T11:31:30;3.33;;;2.65;;
18136;SDS011;9194;42.632;23.298;2022-10-17T11:36:35;4.97;;;2.83;;
18136;SDS011;9194;42.632;23.298;2022-10-17T11:41:47;10.80;;;3.15;;
18136;SDS011;9194;42.632;23.298;2022-10-17T11:52:22;3.35;;;2.80;;
18136;SDS011;9194;42.632;23.298;2022-10-17T11:57:40;4.00;;;2.30;;
18136;SDS011;9194;42.632;23.298;2022-10-17T12:08:23;3.17;;;2.30;;
18136;SDS011;9194;42.632;23.298;2022-10-17T12:18:32;3.90;;;2.30;;
18136;SDS011;9194;42.632;23.298;2022-10-17T12:23:33;2.60;;;2.40;;
18136;SDS011;9194;42.632;23.298;2022-10-17T12:33:38;4.10;;;2.75;;
18136;SDS011;9194;42.632;23.298;2022-10-17T12:38:50;5.85;;;2.28;;
18136;SDS011;9194;42.632;23.298;2022-10-17T12:43:52;3.40;;;2.65;;
18136;SDS011;9194;42.632;23.298;2022-10-17T12:48:58;4.35;;;2.90;;
18136;SDS011;9194;42.632;23.298;2022-10-17T12:54:01;3.47;;;2.67;;
18136;SDS011;9194;42.632;23.298;2022-10-17T13:04:24;7.68;;;3.08;;
18136;SDS011;9194;42.632;23.298;2022-10-17T13:09:34;3.95;;;3.03;;
18136;SDS011;9194;42.632;23.298;2022-10-17T13:14:38;17.02;;;3.30;;
18136;SDS011;9194;42.632;23.298;2022-10-17T13:19:43;6.80;;;2.78;;
18136;SDS011;9194;42.632;23.298;2022-10-17T13:24:45;5.53;;;2.85;;
18136;SDS011;9194;42.632;23.298;2022-10-17T13:29:47;4.93;;;2.80;;
18136;SDS011;9194;42.632;23.298;2022-10-17T13:40:24;3.67;;;3.05;;
18136;SDS011;9194;42.632;23.298;2022-10-17T13:45:32;5.63;;;2.60;;
18136;SDS011;9194;42.632;23.298;2022-10-17T13:50:37;5.75;;;2.58;;
18136;SDS011;9194;42.632;23.298;2022-10-17T14:01:05;11.43;;;2.70;;
18136;SDS011;9194;42.632;23.298;2022-10-17T14:06:13;4.43;;;2.53;;
18136;SDS011;9194;42.632;23.298;2022-10-17T14:11:21;12.80;;;2.85;;
18136;SDS011;9194;42.632;23.298;2022-10-17T14:16:25;4.13;;;2.92;;
18136;SDS011;9194;42.632;23.298;2022-10-17T14:21:34;44.03;;;17.27;;
18136;SDS011;9194;42.632;23.298;2022-10-17T14:26:44;99.75;;;30.38;;
18136;SDS011;9194;42.632;23.298;2022-10-17T14:31:47;69.23;;;23.20;;
18136;SDS011;9194;42.632;23.298;2022-10-17T14:36:50;53.93;;;23.53;;
18136;SDS011;9194;42.632;23.298;2022-10-17T14:41:52;68.93;;;26.47;;
18136;SDS011;9194;42.632;23.298;2022-10-17T14:47:01;44.77;;;20.70;;
18136;SDS011;9194;42.632;23.298;2022-10-17T14:52:08;26.90;;;11.67;;
18136;SDS011;9194;42.632;23.298;2022-10-17T15:02:27;11.47;;;6.57;;
18136;SDS011;9194;42.632;23.298;2022-10-17T15:07:29;12.27;;;6.63;;
18136;SDS011;9194;42.632;23.298;2022-10-17T15:12:31;31.67;;;13.47;;
18136;SDS011;9194;42.632;23.298;2022-10-17T15:17:32;30.90;;;14.40;;
18136;SDS011;9194;42.632;23.298;2022-10-17T15:22:34;25.40;;;12.87;;
18136;SDS011;9194;42.632;23.298;2022-10-17T15:27:36;17.37;;;9.87;;
18136;SDS011;9194;42.632;23.298;2022-10-17T15:32:37;18.07;;;8.50;;
18136;SDS011;9194;42.632;23.298;2022-10-17T15:37:39;29.47;;;11.80;;
18136;SDS011;9194;42.632;23.298;2022-10-17T15:42:40;27.57;;;10.80;;
18136;SDS011;9194;42.632;23.298;2022-10-17T15:47:42;40.70;;;16.43;;
18136;SDS011;9194;42.632;23.298;2022-10-17T15:52:49;54.33;;;21.77;;
18136;SDS011;9194;42.632;23.298;2022-10-17T15:57:53;68.77;;;26.13;;
18136;SDS011;9194;42.632;23.298;2022-10-17T16:02:54;75.33;;;25.00;;
18136;SDS011;9194;42.632;23.298;2022-10-17T16:07:55;133.50;;;40.50;;
18136;SDS011;9194;42.632;23.298;2022-10-17T16:12:57;212.13;;;69.30;;
18136;SDS011;9194;42.632;23.298;2022-10-17T16:17:58;108.87;;;41.00;;
18136;SDS011;9194;42.632;23.298;2022-10-17T16:23:00;68.83;;;26.90;;
18136;SDS011;9194;42.632;23.298;2022-10-17T16:28:02;40.30;;;18.43;;
18136;SDS011;9194;42.632;23.298;2022-10-17T16:33:06;60.90;;;24.60;;
18136;SDS011;9194;42.632;23.298;2022-10-17T16:38:07;56.23;;;23.50;;
18136;SDS011;9194;42.632;23.298;2022-10-17T16:43:11;50.23;;;23.57;;
18136;SDS011;9194;42.632;23.298;2022-10-17T16:48:13;48.50;;;22.50;;
18136;SDS011;9194;42.632;23.298;2022-10-17T16:53:15;33.37;;;15.30;;
18136;SDS011;9194;42.632;23.298;2022-10-17T16:58:16;30.67;;;14.73;;
18136;SDS011;9194;42.632;23.298;2022-10-17T17:03:17;22.60;;;12.37;;
18136;SDS011;9194;42.632;23.298;2022-10-17T17:08:18;13.77;;;8.70;;
18136;SDS011;9194;42.632;23.298;2022-10-17T17:13:20;8.07;;;5.40;;
18136;SDS011;9194;42.632;23.298;2022-10-17T17:18:21;17.17;;;7.97;;
18136;SDS011;9194;42.632;23.298;2022-10-17T17:23:22;15.00;;;7.03;;
18136;SDS011;9194;42.632;23.298;2022-10-17T17:28:24;18.87;;;12.53;;
18136;SDS011;9194;42.632;23.298;2022-10-17T17:33:26;22.43;;;11.27;;
18136;SDS011;9194;42.632;23.298;2022-10-17T17:38:30;9.67;;;5.47;;
18136;SDS011;9194;42.632;23.298;2022-10-17T17:43:34;10.50;;;5.93;;
18136;SDS011;9194;42.632;23.298;2022-10-17T17:48:35;7.13;;;4.10;;
18136;SDS011;9194;42.632;23.298;2022-10-17T17:53:40;5.83;;;4.53;;
18136;SDS011;9194;42.632;23.298;2022-10-17T17:58:42;5.43;;;4.03;;
18136;SDS011;9194;42.632;23.298;2022-10-17T18:03:45;6.17;;;5.10;;
18136;SDS011;9194;42.632;23.298;2022-10-17T18:08:49;9.80;;;6.20;;
18136;SDS011;9194;42.632;23.298;2022-10-17T18:13:56;9.97;;;4.30;;
18136;SDS011;9194;42.632;23.298;2022-10-17T18:19:09;5.73;;;4.63;;
18136;SDS011;9194;42.632;23.298;2022-10-17T18:24:11;6.13;;;4.93;;
18136;SDS011;9194;42.632;23.298;2022-10-17T18:29:12;7.13;;;4.60;;
18136;SDS011;9194;42.632;23.298;2022-10-17T18:34:13;11.27;;;6.03;;
18136;SDS011;9194;42.632;23.298;2022-10-17T18:39:14;16.23;;;8.03;;
18136;SDS011;9194;42.632;23.298;2022-10-17T18:44:16;12.07;;;6.27;;
18136;SDS011;9194;42.632;23.298;2022-10-17T18:49:17;9.70;;;5.37;;
18136;SDS011;9194;42.632;23.298;2022-10-17T18:54:20;8.70;;;5.07;;
18136;SDS011;9194;42.632;23.298;2022-10-17T18:59:21;4.93;;;3.13;;
18136;SDS011;9194;42.632;23.298;2022-10-17T19:04:23;5.00;;;3.07;;
18136;SDS011;9194;42.632;23.298;2022-10-17T19:09:24;3.37;;;2.90;;
18136;SDS011;9194;42.632;23.298;2022-10-17T19:14:26;4.03;;;3.50;;
18136;SDS011;9194;42.632;23.298;2022-10-17T19:19:28;3.47;;;3.17;;
18136;SDS011;9194;42.632;23.298;2022-10-17T19:24:29;6.70;;;4.03;;
18136;SDS011;9194;42.632;23.298;2022-10-17T19:29:31;7.17;;;4.83;;
18136;SDS011;9194;42.632;23.298;2022-10-17T19:34:33;5.20;;;4.70;;
18136;SDS011;9194;42.632;23.298;2022-10-17T19:39:35;4.27;;;2.70;;
18136;SDS011;9194;42.632;23.298;2022-10-17T19:44:36;2.87;;;2.40;;
18136;SDS011;9194;42.632;23.298;2022-10-17T19:49:37;4.23;;;2.13;;
18136;SDS011;9194;42.632;23.298;2022-10-17T19:54:39;4.23;;;2.77;;
18136;SDS011;9194;42.632;23.298;2022-10-17T19:59:43;12.57;;;7.13;;
18136;SDS011;9194;42.632;23.298;2022-10-17T20:04:44;4.63;;;2.93;;
18136;SDS011;9194;42.632;23.298;2022-10-17T20:09:46;33.10;;;12.80;;
18136;SDS011;9194;42.632;23.298;2022-10-17T20:14:47;142.43;;;38.33;;
18136;SDS011;9194;42.632;23.298;2022-10-17T20:19:48;165.17;;;48.80;;
18136;SDS011;9194;42.632;23.298;2022-10-17T20:24:49;209.80;;;55.57;;
18136;SDS011;9194;42.632;23.298;2022-10-17T20:29:51;169.83;;;49.03;;
18136;SDS011;9194;42.632;23.298;2022-10-17T20:34:52;75.90;;;24.93;;
18136;SDS011;9194;42.632;23.298;2022-10-17T20:39:54;60.43;;;20.50;;
18136;SDS011;9194;42.632;23.298;2022-10-17T20:44:55;24.10;;;9.57;;
18136;SDS011;9194;42.632;23.298;2022-10-17T20:49:57;60.93;;;18.77;;
18136;SDS011;9194;42.632;23.298;2022-10-17T20:54:58;81.57;;;24.73;;
18136;SDS011;9194;42.632;23.298;2022-10-17T20:59:59;149.10;;;38.37;;
18136;SDS011;9194;42.632;23.298;2022-10-17T21:05:01;538.87;;;123.50;;
18136;SDS011;9194;42.632;23.298;2022-10-17T21:10:02;138.90;;;33.97;;
18136;SDS011;9194;42.632;23.298;2022-10-17T21:15:05;55.83;;;16.77;;
18136;SDS011;9194;42.632;23.298;2022-10-17T21:20:07;88.47;;;27.13;;
18136;SDS011;9194;42.632;23.298;2022-10-17T21:25:08;21.37;;;9.43;;
18136;SDS011;9194;42.632;23.298;2022-10-17T21:30:10;10.47;;;6.67;;
18136;SDS011;9194;42.632;23.298;2022-10-17T21:35:11;124.03;;;31.07;;
18136;SDS011;9194;42.632;23.298;2022-10-17T21:40:12;273.13;;;65.03;;
18136;SDS011;9194;42.632;23.298;2022-10-17T21:45:14;136.13;;;37.07;;
18136;SDS011;9194;42.632;23.298;2022-10-17T21:50:15;31.40;;;14.17;;
18136;SDS011;9194;42.632;23.298;2022-10-17T21:55:16;13.03;;;6.73;;
18136;SDS011;9194;42.632;23.298;2022-10-17T22:00:18;28.80;;;13.60;;
18136;SDS011;9194;42.632;23.298;2022-10-17T22:05:19;17.67;;;9.43;;
18136;SDS011;9194;42.632;23.298;2022-10-17T22:10:20;16.53;;;6.73;;
18136;SDS011;9194;42.632;23.298;2022-10-17T22:15:22;51.80;;;18.53;;
18136;SDS011;9194;42.632;23.298;2022-10-17T22:20:23;20.50;;;9.57;;
18136;SDS011;9194;42.632;23.298;2022-10-17T22:25:24;10.43;;;6.23;;
18136;SDS011;9194;42.632;23.298;2022-10-17T22:30:25;8.27;;;3.17;;
18136;SDS011;9194;42.632;23.298;2022-10-17T22:35:26;5.87;;;3.20;;
18136;SDS011;9194;42.632;23.298;2022-10-17T22:40:28;3.80;;;2.90;;
18136;SDS011;9194;42.632;23.298;2022-10-17T22:45:29;68.97;;;28.30;;
18136;SDS011;9194;42.632;23.298;2022-10-17T22:50:30;33.40;;;13.23;;
18136;SDS011;9194;42.632;23.298;2022-10-17T22:55:32;14.07;;;7.17;;
18136;SDS011;9194;42.632;23.298;2022-10-17T23:00:33;15.17;;;6.77;;
18136;SDS011;9194;42.632;23.298;2022-10-17T23:05:34;8.20;;;5.57;;
18136;SDS011;9194;42.632;23.298;2022-10-17T23:10:36;17.10;;;9.53;;
18136;SDS011;9194;42.632;23.298;2022-10-17T23:33:20;2.70;;;2.50;;
18136;SDS011;9194;42.632;23.298;2022-10-17T23:38:22;6.17;;;3.30;;
18136;SDS011;9194;42.632;23.298;2022-10-17T23:43:23;4.80;;;3.00;;
18136;SDS011;9194;42.632;23.298;2022-10-17T23:48:26;7.00;;;3.27;;
18136;SDS011;9194;42.632;23.298;2022-10-17T23:53:28;6.07;;;2.80;;
18136;SDS011;9194;42.632;23.298;2022-10-17T23:58:29;9.57;;;3.10;;
